createdAt,value
2022-12-25T00:01:32.339Z,100.00
2022-12-25T00:03:59.532Z,100.00
2022-12-25T00:06:45.437Z,100.00
2022-12-25T00:09:12.358Z,100.00
2022-12-25T00:11:39.305Z,100.00
2022-12-25T00:14:06.323Z,100.00
2022-12-25T00:16:33.753Z,100.00
2022-12-25T00:19:01.583Z,100.00
2022-12-25T00:21:28.874Z,100.00
2022-12-25T00:23:58.478Z,100.00
2022-12-25T00:26:26.847Z,100.00
2022-12-25T00:28:55.760Z,100.00
2022-12-25T00:31:26.027Z,100.00
2022-12-25T00:33:53.359Z,100.00
2022-12-25T00:36:22.650Z,100.00
2022-12-25T00:38:49.711Z,100.00
2022-12-25T00:41:39.450Z,100.00
2022-12-25T00:44:25.107Z,100.00
2022-12-25T00:46:52.158Z,100.00
2022-12-25T00:49:19.617Z,100.00
2022-12-25T00:51:46.424Z,100.00
2022-12-25T00:54:13.458Z,100.00
2022-12-25T00:56:40.370Z,100.00
2022-12-25T00:59:07.205Z,100.00
2022-12-25T01:01:34.749Z,100.00
2022-12-25T01:04:02.232Z,100.00
2022-12-25T01:06:29.591Z,100.00
2022-12-25T01:09:15.414Z,100.00
2022-12-25T01:11:42.208Z,100.00
2022-12-25T01:14:09.238Z,100.00
2022-12-25T01:16:36.431Z,100.00
2022-12-25T01:19:03.706Z,100.00
2022-12-25T01:21:30.884Z,100.00
2022-12-25T01:23:58.406Z,100.00
2022-12-25T01:26:27.257Z,100.00
2022-12-25T01:28:54.331Z,100.00
2022-12-25T01:31:23.154Z,100.00
2022-12-25T01:33:50.441Z,100.00
2022-12-25T01:36:23.373Z,100.00
2022-12-25T01:38:51.521Z,100.00
2022-12-25T01:41:20.763Z,100.00
2022-12-25T01:44:29.285Z,100.00
2022-12-25T01:46:56.372Z,100.00
2022-12-25T01:49:26.124Z,100.00
2022-12-25T01:52:01.059Z,100.00
2022-12-25T01:54:33.610Z,100.00
2022-12-25T01:57:06.733Z,100.00
2022-12-25T01:59:33.735Z,100.00
2022-12-25T02:02:01.502Z,100.00
2022-12-25T02:04:39.414Z,100.00
2022-12-25T02:07:06.244Z,100.00
2022-12-25T02:09:33.375Z,100.00
2022-12-25T02:12:00.948Z,100.00
2022-12-25T02:14:32.559Z,100.00
2022-12-25T02:17:26.209Z,100.00
2022-12-25T02:20:17.606Z,100.00
2022-12-25T02:23:03.289Z,100.00
2022-12-25T02:25:39.143Z,100.00
2022-12-25T02:28:06.240Z,100.00
2022-12-25T02:30:40.960Z,100.00
2022-12-25T02:33:35.192Z,100.00
2022-12-25T02:36:07.462Z,100.00
2022-12-25T02:38:39.012Z,100.00
2022-12-25T02:41:15.226Z,100.00
2022-12-25T02:44:03.702Z,100.00
2022-12-25T02:46:51.716Z,100.00
2022-12-25T02:49:42.658Z,100.00
2022-12-25T02:52:31.777Z,100.00
2022-12-25T02:55:40.175Z,100.00
2022-12-25T02:58:35.125Z,100.00
2022-12-25T03:01:28.960Z,100.00
2022-12-25T03:04:18.951Z,100.00
2022-12-25T03:07:10.049Z,100.00
2022-12-25T03:10:24.304Z,100.00
2022-12-25T03:13:04.257Z,100.00
2022-12-25T03:15:51.789Z,100.00
2022-12-25T03:18:24.491Z,100.00
2022-12-25T03:21:10.841Z,100.00
2022-12-25T03:23:59.201Z,100.00
2022-12-25T03:26:46.202Z,100.00
2022-12-25T03:29:32.978Z,100.00
2022-12-25T03:32:42.078Z,100.00
2022-12-25T03:35:25.705Z,100.00
2022-12-25T03:38:19.592Z,100.00
2022-12-25T03:41:28.757Z,100.00
2022-12-25T03:44:42.407Z,100.00
2022-12-25T03:47:35.257Z,100.00
2022-12-25T03:50:36.420Z,100.00
2022-12-25T03:53:28.335Z,100.00
2022-12-25T03:56:15.070Z,100.00
2022-12-25T03:59:21.109Z,100.00
2022-12-25T04:02:09.552Z,100.00
2022-12-25T04:04:55.507Z,100.00
2022-12-25T04:07:41.064Z,100.00
2022-12-25T04:10:27.360Z,100.00
2022-12-25T04:13:12.981Z,100.00
2022-12-25T04:15:58.604Z,100.00
2022-12-25T04:18:43.792Z,100.00
2022-12-25T04:21:29.656Z,100.00
2022-12-25T04:24:15.196Z,100.00
2022-12-25T04:27:00.524Z,100.00
2022-12-25T04:29:46.018Z,100.00
2022-12-25T04:32:31.512Z,100.00
2022-12-25T04:35:17.164Z,100.00
2022-12-25T04:37:44.401Z,99.64
2022-12-25T04:40:11.515Z,100.00
2022-12-25T04:42:38.412Z,99.97
2022-12-25T04:45:05.694Z,100.00
2022-12-25T04:47:33.623Z,100.00
2022-12-25T04:50:00.477Z,100.00
2022-12-25T04:52:27.529Z,99.99
2022-12-25T04:54:54.537Z,100.00
2022-12-25T04:57:21.427Z,100.00
2022-12-25T04:59:48.308Z,100.00
2022-12-25T05:02:15.373Z,99.81
2022-12-25T05:04:42.367Z,100.00
2022-12-25T05:07:09.355Z,100.00
2022-12-25T05:09:36.257Z,100.00
2022-12-25T05:12:03.296Z,98.68
2022-12-25T05:14:31.573Z,99.10
2022-12-25T05:16:58.379Z,100.00
2022-12-25T05:19:25.604Z,100.00
2022-12-25T05:21:52.561Z,100.00
2022-12-25T05:24:20.055Z,99.56
2022-12-25T05:26:47.127Z,100.00
2022-12-25T05:29:14.328Z,99.45
2022-12-25T05:31:41.383Z,100.00
2022-12-25T05:34:08.371Z,100.00
2022-12-25T05:36:35.559Z,100.00
2022-12-25T05:39:02.396Z,100.00
2022-12-25T05:41:33.941Z,100.00
2022-12-25T05:44:01.512Z,100.00
2022-12-25T05:46:28.568Z,100.00
2022-12-25T05:48:55.650Z,100.00
2022-12-25T05:51:22.880Z,100.00
2022-12-25T05:53:49.680Z,100.00
2022-12-25T05:56:35.210Z,100.00
2022-12-25T05:59:02.080Z,99.72
2022-12-25T06:01:29.340Z,100.00
2022-12-25T06:03:56.947Z,100.00
2022-12-25T06:06:23.989Z,100.00
2022-12-25T06:08:53.191Z,100.00
2022-12-25T06:11:20.058Z,100.00
2022-12-25T06:13:50.911Z,100.00
2022-12-25T06:16:19.023Z,100.00
2022-12-25T06:18:49.087Z,99.64
2022-12-25T06:21:16.893Z,99.95
2022-12-25T06:23:44.554Z,100.00
2022-12-25T06:26:19.019Z,100.00
2022-12-25T06:28:46.572Z,99.53
2022-12-25T06:31:16.507Z,100.00
2022-12-25T06:33:43.572Z,99.50
2022-12-25T06:36:20.750Z,99.46
2022-12-25T06:38:48.205Z,99.87
2022-12-25T06:41:17.980Z,99.35
2022-12-25T06:43:49.557Z,99.49
2022-12-25T06:46:16.653Z,97.52
2022-12-25T06:48:49.342Z,98.28
2022-12-25T06:51:17.739Z,99.16
2022-12-25T06:53:44.797Z,100.00
2022-12-25T06:56:18.680Z,96.78
2022-12-25T06:58:47.797Z,95.40
2022-12-25T07:01:19.521Z,90.42
2022-12-25T07:03:49.837Z,82.18
2022-12-25T07:06:16.750Z,75.70
2022-12-25T07:08:43.554Z,68.53
2022-12-25T07:11:10.490Z,65.44
2022-12-25T07:13:37.398Z,59.00
2022-12-25T07:16:05.455Z,56.80
2022-12-25T07:18:32.566Z,52.84
2022-12-25T07:21:02.716Z,55.69
2022-12-25T07:23:29.510Z,55.14
2022-12-25T07:25:58.102Z,53.43
2022-12-25T07:28:25.466Z,50.66
2022-12-25T07:30:52.840Z,49.65
2022-12-25T07:33:19.851Z,49.20
2022-12-25T07:35:46.780Z,45.52
2022-12-25T07:38:13.746Z,49.07
2022-12-25T07:40:40.586Z,47.12
2022-12-25T07:43:07.467Z,45.96
2022-12-25T07:45:34.350Z,46.79
2022-12-25T07:48:05.196Z,47.87
2022-12-25T07:50:33.179Z,46.48
2022-12-25T07:53:00.142Z,46.78
2022-12-25T07:55:27.043Z,44.50
2022-12-25T07:57:53.902Z,44.97
2022-12-25T08:00:21.084Z,44.40
2022-12-25T08:02:51.168Z,44.36
2022-12-25T08:05:18.525Z,45.08
2022-12-25T08:07:53.840Z,45.60
2022-12-25T08:10:24.015Z,45.00
2022-12-25T08:12:52.356Z,45.83
2022-12-25T08:15:19.266Z,43.95
2022-12-25T08:17:46.509Z,44.37
2022-12-25T08:20:13.752Z,47.94
2022-12-25T08:22:40.689Z,47.47
2022-12-25T08:25:08.156Z,46.67
2022-12-25T08:27:35.893Z,45.40
2022-12-25T08:30:03.018Z,47.78
2022-12-25T08:32:33.660Z,50.73
2022-12-25T08:35:00.618Z,51.48
2022-12-25T08:37:30.077Z,51.63
2022-12-25T08:39:56.921Z,52.38
2022-12-25T08:42:23.827Z,52.36
2022-12-25T08:44:50.648Z,52.89
2022-12-25T08:47:17.568Z,53.22
2022-12-25T08:49:44.365Z,52.03
2022-12-25T08:52:11.317Z,51.95
2022-12-25T08:54:39.270Z,52.91
2022-12-25T08:57:06.099Z,54.11
2022-12-25T08:59:33.144Z,55.10
2022-12-25T09:02:00.286Z,57.40
2022-12-25T09:04:27.359Z,56.70
2022-12-25T09:06:54.198Z,56.90
2022-12-25T09:09:21.739Z,56.16
2022-12-25T09:11:49.540Z,57.68
2022-12-25T09:14:16.415Z,57.91
2022-12-25T09:16:43.277Z,56.36
2022-12-25T09:19:10.089Z,55.57
2022-12-25T09:21:36.977Z,55.79
2022-12-25T09:24:05.040Z,55.46
2022-12-25T09:26:31.794Z,55.42
2022-12-25T09:28:58.676Z,53.30
2022-12-25T09:31:25.604Z,55.91
2022-12-25T09:33:57.137Z,53.13
2022-12-25T09:36:25.091Z,52.89
2022-12-25T09:38:53.215Z,50.86
2022-12-25T09:41:35.665Z,51.84
2022-12-25T09:44:10.818Z,52.03
2022-12-25T09:46:51.279Z,53.78
2022-12-25T09:49:35.847Z,55.01
2022-12-25T09:52:12.768Z,56.02
2022-12-25T09:55:19.885Z,57.21
2022-12-25T09:57:52.934Z,56.93
2022-12-25T10:00:25.247Z,57.88
2022-12-25T10:03:08.068Z,56.96
2022-12-25T10:05:35.586Z,55.74
2022-12-25T10:08:50.696Z,55.42
2022-12-25T10:11:42.072Z,55.20
2022-12-25T10:14:30.147Z,53.27
2022-12-25T10:17:00.106Z,53.37
2022-12-25T10:19:39.259Z,54.53
2022-12-25T10:22:16.483Z,52.95
2022-12-25T10:24:49.078Z,54.68
2022-12-25T10:27:33.327Z,53.97
2022-12-25T10:30:01.590Z,52.74
2022-12-25T10:32:28.870Z,52.72
2022-12-25T10:34:55.980Z,52.88
2022-12-25T10:37:22.938Z,52.69
2022-12-25T10:39:49.938Z,51.41
2022-12-25T10:42:46.765Z,51.24
2022-12-25T10:45:13.767Z,51.88
2022-12-25T10:47:42.893Z,52.29
2022-12-25T10:50:20.138Z,51.08
2022-12-25T10:52:59.764Z,49.01
2022-12-25T10:55:29.345Z,47.07
2022-12-25T10:57:58.131Z,47.99
2022-12-25T11:00:31.315Z,47.41
2022-12-25T11:02:59.767Z,46.17
2022-12-25T11:05:30.232Z,46.46
2022-12-25T11:07:59.794Z,47.51
2022-12-25T11:10:32.292Z,47.29
2022-12-25T11:13:01.271Z,48.21
2022-12-25T11:15:42.045Z,48.39
2022-12-25T11:18:29.983Z,48.08
2022-12-25T11:20:59.752Z,46.92
2022-12-25T11:23:30.037Z,48.93
2022-12-25T11:26:02.709Z,47.01
2022-12-25T11:28:32.221Z,47.88
2022-12-25T11:31:08.586Z,49.52
2022-12-25T11:33:40.321Z,51.30
2022-12-25T11:36:20.402Z,49.00
2022-12-25T11:38:47.717Z,49.60
2022-12-25T11:41:20.928Z,48.97
2022-12-25T11:43:54.453Z,49.08
2022-12-25T11:46:31.603Z,50.66
2022-12-25T11:49:02.760Z,49.42
2022-12-25T11:51:37.235Z,47.09
2022-12-25T11:54:32.738Z,50.53
2022-12-25T11:57:04.952Z,50.61
2022-12-25T11:59:38.063Z,52.10
2022-12-25T12:02:37.394Z,52.34
2022-12-25T12:05:36.035Z,51.59
2022-12-25T12:08:06.270Z,51.61
2022-12-25T12:10:46.362Z,49.95
2022-12-25T12:13:45.592Z,52.66
2022-12-25T12:16:13.032Z,52.55
2022-12-25T12:18:48.140Z,51.85
2022-12-25T12:21:24.596Z,50.53
2022-12-25T12:24:06.325Z,51.27
2022-12-25T12:26:38.785Z,52.03
2022-12-25T12:29:08.784Z,51.93
2022-12-25T12:31:44.051Z,51.40
2022-12-25T12:34:25.720Z,51.54
2022-12-25T12:36:59.734Z,51.69
2022-12-25T12:39:37.038Z,52.16
2022-12-25T12:42:14.706Z,50.96
2022-12-25T12:44:42.110Z,50.38
2022-12-25T12:47:45.204Z,50.40
2022-12-25T12:50:36.121Z,51.27
2022-12-25T12:53:24.701Z,53.13
2022-12-25T12:55:53.384Z,54.29
2022-12-25T12:58:38.545Z,53.75
2022-12-25T13:01:38.598Z,53.69
2022-12-25T13:04:42.933Z,53.98
2022-12-25T13:07:13.053Z,54.88
2022-12-25T13:10:02.928Z,54.47
2022-12-25T13:12:30.457Z,54.68
2022-12-25T13:14:58.611Z,56.37
2022-12-25T13:17:27.903Z,60.34
2022-12-25T13:19:59.953Z,64.62
2022-12-25T13:22:36.813Z,66.42
2022-12-25T13:25:15.032Z,67.88
2022-12-25T13:27:42.091Z,67.97
2022-12-25T13:30:14.557Z,67.22
2022-12-25T13:32:43.181Z,67.84
2022-12-25T13:35:15.405Z,68.56
2022-12-25T13:37:43.421Z,68.63
2022-12-25T13:40:28.263Z,68.98
2022-12-25T13:43:01.983Z,69.60
2022-12-25T13:45:31.059Z,70.23
2022-12-25T13:47:58.775Z,70.39
2022-12-25T13:50:34.124Z,70.26
2022-12-25T13:53:16.863Z,70.91
2022-12-25T13:55:50.351Z,71.17
2022-12-25T13:58:29.576Z,71.89
2022-12-25T14:01:01.037Z,73.08
2022-12-25T14:03:41.350Z,72.35
2022-12-25T14:06:31.483Z,73.12
2022-12-25T14:08:59.773Z,73.55
2022-12-25T14:11:30.287Z,72.43
2022-12-25T14:14:00.212Z,72.62
2022-12-25T14:16:27.999Z,73.74
2022-12-25T14:19:00.970Z,76.03
2022-12-25T14:21:35.232Z,74.17
2022-12-25T14:24:02.544Z,74.23
2022-12-25T14:26:33.936Z,74.64
2022-12-25T14:29:15.627Z,73.15
2022-12-25T14:31:47.275Z,73.62
2022-12-25T14:34:25.315Z,74.15
2022-12-25T14:36:53.424Z,73.91
2022-12-25T14:39:41.079Z,75.00
2022-12-25T14:42:29.917Z,75.34
2022-12-25T14:45:24.965Z,75.74
2022-12-25T14:47:54.116Z,74.91
2022-12-25T14:50:29.179Z,75.24
2022-12-25T14:52:56.808Z,75.95
2022-12-25T14:55:27.678Z,76.66
2022-12-25T14:57:59.008Z,76.61
2022-12-25T15:00:39.540Z,78.16
2022-12-25T15:03:26.581Z,78.49
2022-12-25T15:06:01.731Z,79.44
2022-12-25T15:08:30.491Z,79.12
2022-12-25T15:11:00.942Z,79.06
2022-12-25T15:13:30.841Z,78.90
2022-12-25T15:16:12.809Z,79.43
2022-12-25T15:18:42.218Z,80.24
2022-12-25T15:21:38.787Z,81.00
2022-12-25T15:24:06.057Z,80.81
2022-12-25T15:26:33.466Z,82.06
2022-12-25T15:29:00.468Z,81.94
2022-12-25T15:31:32.059Z,82.13
2022-12-25T15:34:03.320Z,82.49
2022-12-25T15:36:30.955Z,83.33
2022-12-25T15:38:59.548Z,83.72
2022-12-25T15:41:53.842Z,84.12
2022-12-25T15:44:21.233Z,85.02
2022-12-25T15:46:48.230Z,84.94
2022-12-25T15:49:16.176Z,84.82
2022-12-25T15:51:43.977Z,84.97
2022-12-25T15:54:11.323Z,85.62
2022-12-25T15:56:44.945Z,85.77
2022-12-25T15:59:13.699Z,85.84
2022-12-25T16:01:47.655Z,86.43
2022-12-25T16:04:14.631Z,86.59
2022-12-25T16:06:42.300Z,86.25
2022-12-25T16:09:14.682Z,86.73
2022-12-25T16:11:41.627Z,86.71
2022-12-25T16:14:09.076Z,87.28
2022-12-25T16:16:36.260Z,87.96
2022-12-25T16:19:03.452Z,88.80
2022-12-25T16:21:39.956Z,89.07
2022-12-25T16:24:07.375Z,88.71
2022-12-25T16:26:34.279Z,89.03
2022-12-25T16:29:06.988Z,88.71
2022-12-25T16:31:35.301Z,88.92
2022-12-25T16:34:02.329Z,89.45
2022-12-25T16:36:29.216Z,89.57
2022-12-25T16:38:56.146Z,89.71
2022-12-25T16:41:23.138Z,89.57
2022-12-25T16:43:50.147Z,88.43
2022-12-25T16:46:20.022Z,90.66
2022-12-25T16:48:46.960Z,89.85
2022-12-25T16:51:19.993Z,88.42
2022-12-25T16:53:47.346Z,89.08
2022-12-25T16:56:17.565Z,89.51
2022-12-25T16:58:48.482Z,89.35
2022-12-25T17:01:17.978Z,89.19
2022-12-25T17:03:45.469Z,89.19
2022-12-25T17:06:23.338Z,89.37
2022-12-25T17:08:52.224Z,89.56
2022-12-25T17:11:23.655Z,89.02
2022-12-25T17:13:50.791Z,90.51
2022-12-25T17:16:26.993Z,90.14
2022-12-25T17:19:20.905Z,89.46
2022-12-25T17:21:47.853Z,88.76
2022-12-25T17:24:15.306Z,89.19
2022-12-25T17:26:43.945Z,89.17
2022-12-25T17:29:14.734Z,90.46
2022-12-25T17:31:45.645Z,91.73
2022-12-25T17:34:12.756Z,91.17
2022-12-25T17:36:40.117Z,91.00
2022-12-25T17:39:06.997Z,91.52
2022-12-25T17:41:34.234Z,91.16
2022-12-25T17:44:01.304Z,91.45
2022-12-25T17:46:30.550Z,91.00
2022-12-25T17:48:59.780Z,91.59
2022-12-25T17:51:28.637Z,91.67
2022-12-25T17:53:59.229Z,90.72
2022-12-25T17:56:27.133Z,91.05
2022-12-25T17:58:57.550Z,91.37
2022-12-25T18:01:26.442Z,92.04
2022-12-25T18:03:54.203Z,92.52
2022-12-25T18:06:24.854Z,92.65
2022-12-25T18:08:52.178Z,91.96
2022-12-25T18:11:22.072Z,92.36
2022-12-25T18:13:52.256Z,92.37
2022-12-25T18:16:23.241Z,91.76
2022-12-25T18:18:52.481Z,91.96
2022-12-25T18:21:22.307Z,91.93
2022-12-25T18:23:49.970Z,92.00
2022-12-25T18:26:17.332Z,91.42
2022-12-25T18:28:44.323Z,92.29
2022-12-25T18:31:17.083Z,92.35
2022-12-25T18:33:44.844Z,91.72
2022-12-25T18:36:17.550Z,91.96
2022-12-25T18:38:44.582Z,92.43
2022-12-25T18:41:12.107Z,92.24
2022-12-25T18:43:54.011Z,91.73
2022-12-25T18:46:27.741Z,92.24
2022-12-25T18:48:56.707Z,93.06
2022-12-25T18:51:23.961Z,92.31
2022-12-25T18:53:51.495Z,92.00
2022-12-25T18:56:18.944Z,91.91
2022-12-25T18:58:47.288Z,92.77
2022-12-25T19:01:20.263Z,92.53
2022-12-25T19:03:49.508Z,91.55
2022-12-25T19:06:18.246Z,92.06
2022-12-25T19:08:45.441Z,92.90
2022-12-25T19:11:12.536Z,93.03
2022-12-25T19:13:39.463Z,92.51
2022-12-25T19:16:06.711Z,92.85
2022-12-25T19:18:33.907Z,92.94
2022-12-25T19:21:05.692Z,92.17
2022-12-25T19:23:33.207Z,93.31
2022-12-25T19:26:00.268Z,92.59
2022-12-25T19:28:27.179Z,91.46
2022-12-25T19:30:54.574Z,93.22
2022-12-25T19:33:22.414Z,92.28
2022-12-25T19:35:50.046Z,92.89
2022-12-25T19:38:17.242Z,94.34
2022-12-25T19:41:00.837Z,93.43
2022-12-25T19:43:33.918Z,93.53
2022-12-25T19:46:02.255Z,92.96
2022-12-25T19:48:30.656Z,94.39
2022-12-25T19:50:58.000Z,94.33
2022-12-25T19:53:25.220Z,93.65
2022-12-25T19:55:53.737Z,93.04
2022-12-25T19:58:22.578Z,93.65
2022-12-25T20:01:05.287Z,92.90
2022-12-25T20:03:34.471Z,92.20
2022-12-25T20:06:26.491Z,91.17
2022-12-25T20:09:01.747Z,92.60
2022-12-25T20:11:30.297Z,91.64
2022-12-25T20:13:58.012Z,90.34
2022-12-25T20:16:25.974Z,90.92
2022-12-25T20:18:53.619Z,92.44
2022-12-25T20:21:22.798Z,90.79
2022-12-25T20:23:52.581Z,93.32
2022-12-25T20:26:23.061Z,93.23
2022-12-25T20:28:50.699Z,93.19
2022-12-25T20:31:24.247Z,92.31
2022-12-25T20:33:51.296Z,92.09
2022-12-25T20:36:19.164Z,92.86
2022-12-25T20:38:46.049Z,94.07
2022-12-25T20:41:31.697Z,92.81
2022-12-25T20:43:58.824Z,93.20
2022-12-25T20:46:26.947Z,92.31
2022-12-25T20:48:54.100Z,93.96
2022-12-25T20:51:42.296Z,93.55
2022-12-25T20:54:10.631Z,93.83
2022-12-25T20:56:37.667Z,94.02
2022-12-25T20:59:04.681Z,94.49
2022-12-25T21:01:31.961Z,93.61
2022-12-25T21:03:59.721Z,94.10
2022-12-25T21:06:26.889Z,94.88
2022-12-25T21:08:54.176Z,94.10
2022-12-25T21:11:21.646Z,93.98
2022-12-25T21:13:49.009Z,93.48
2022-12-25T21:16:20.274Z,93.72
2022-12-25T21:18:48.506Z,93.84
2022-12-25T21:21:16.457Z,95.24
2022-12-25T21:23:43.638Z,93.76
2022-12-25T21:26:19.408Z,95.39
2022-12-25T21:28:48.131Z,96.79
2022-12-25T21:31:15.286Z,96.32
2022-12-25T21:33:55.497Z,95.24
2022-12-25T21:36:28.862Z,96.64
2022-12-25T21:39:05.225Z,96.75
2022-12-25T21:41:33.078Z,97.71
2022-12-25T21:44:00.649Z,98.01
2022-12-25T21:46:32.597Z,98.58
2022-12-25T21:49:00.171Z,95.47
2022-12-25T21:51:49.635Z,95.43
2022-12-25T21:54:18.901Z,96.56
2022-12-25T21:56:47.603Z,96.35
2022-12-25T21:59:21.126Z,96.13
2022-12-25T22:01:49.045Z,95.77
2022-12-25T22:04:17.951Z,94.31
2022-12-25T22:07:04.546Z,94.90
2022-12-25T22:09:33.341Z,95.13
2022-12-25T22:12:19.134Z,96.77
2022-12-25T22:14:55.766Z,95.46
2022-12-25T22:17:57.659Z,96.35
2022-12-25T22:20:26.151Z,95.86
2022-12-25T22:22:54.065Z,95.03
2022-12-25T22:25:21.822Z,95.15
2022-12-25T22:27:49.680Z,95.99
2022-12-25T22:30:22.878Z,96.18
2022-12-25T22:32:51.074Z,95.09
2022-12-25T22:35:19.197Z,95.65
2022-12-25T22:37:46.847Z,95.28
2022-12-25T22:40:17.527Z,95.20
2022-12-25T22:42:44.760Z,95.47
2022-12-25T22:45:12.510Z,95.67
2022-12-25T22:47:40.203Z,95.65
2022-12-25T22:50:08.778Z,96.65
2022-12-25T22:52:36.793Z,96.50
2022-12-25T22:55:05.059Z,97.48
2022-12-25T22:57:52.378Z,96.48
2022-12-25T23:00:19.419Z,95.94
2022-12-25T23:02:46.714Z,95.56
2022-12-25T23:05:16.540Z,94.81
2022-12-25T23:07:43.791Z,95.49
2022-12-25T23:10:10.976Z,95.11
2022-12-25T23:12:56.388Z,95.37
2022-12-25T23:15:23.325Z,96.08
2022-12-25T23:18:08.998Z,95.96
2022-12-25T23:20:55.186Z,95.98
2022-12-25T23:23:41.077Z,95.75
2022-12-25T23:26:08.048Z,96.96
2022-12-25T23:28:58.385Z,96.18
2022-12-25T23:31:30.446Z,95.63
2022-12-25T23:33:57.864Z,97.00
2022-12-25T23:36:25.211Z,96.85
2022-12-25T23:38:52.146Z,96.80
2022-12-25T23:41:19.416Z,96.72
2022-12-25T23:43:46.507Z,96.64
2022-12-25T23:46:13.714Z,96.66
2022-12-25T23:48:40.758Z,96.23
2022-12-25T23:51:08.323Z,96.80
2022-12-25T23:53:35.574Z,96.69
2022-12-25T23:56:03.401Z,96.02
2022-12-25T23:58:32.564Z,95.86
